createdAt,value
2023-04-02T00:12:43.343Z,83.5
2023-04-02T00:27:52.773Z,83.5
2023-04-02T00:43:02.528Z,83.3
2023-04-02T00:58:11.890Z,83.2
2023-04-02T01:13:21.390Z,83.2
2023-04-02T01:28:30.690Z,83.2
2023-04-02T01:43:42.895Z,82.9
2023-04-02T01:58:53.026Z,82.9
2023-04-02T02:14:02.554Z,82.8
2023-04-02T02:29:12.282Z,82.6
2023-04-02T02:44:22.060Z,82.6
2023-04-02T02:59:31.831Z,82.5
2023-04-02T03:14:42.843Z,82.4
2023-04-02T03:29:51.086Z,82.3
2023-04-02T03:45:00.436Z,82.1
2023-04-02T04:00:10.261Z,82
2023-04-02T04:15:19.618Z,82
2023-04-02T04:30:29.119Z,81.8
2023-04-02T04:45:38.319Z,81.6
2023-04-02T05:00:50.523Z,81.5
2023-04-02T05:16:02.069Z,81.5
2023-04-02T05:31:12.052Z,81.3
2023-04-02T05:46:22.337Z,81.2
2023-04-02T06:01:32.182Z,81
2023-04-02T06:16:42.334Z,80.8
2023-04-02T06:31:51.432Z,80.7
2023-04-02T06:47:00.972Z,80.4
2023-04-02T07:02:10.705Z,80.2
2023-04-02T07:17:20.311Z,80
2023-04-02T07:32:30.972Z,79.9
2023-04-02T07:47:40.275Z,79
2023-04-02T08:02:50.012Z,79.5
2023-04-02T08:17:59.659Z,79.3
2023-04-02T08:33:09.999Z,79.3
2023-04-02T08:48:20.064Z,79.1
2023-04-02T09:03:29.826Z,79
2023-04-02T09:18:39.802Z,78.9
2023-04-02T09:33:49.133Z,78.6
2023-04-02T09:48:59.309Z,78.4
2023-04-02T10:04:09.249Z,78
2023-04-02T10:19:18.973Z,77.8
2023-04-02T10:34:28.659Z,77.5
2023-04-02T10:49:39.144Z,77
2023-04-02T11:04:49.595Z,76.6
2023-04-02T11:19:59.304Z,76.5
2023-04-02T11:35:09.125Z,76.6
2023-04-02T11:50:19.017Z,76.2
2023-04-02T12:05:29.401Z,74.8
2023-04-02T12:20:41.522Z,71.4
2023-04-02T12:35:52.602Z,69.5
2023-04-02T12:51:03.563Z,69
2023-04-02T13:06:13.301Z,69.3
2023-04-02T13:21:23.404Z,70.3
2023-04-02T13:36:32.838Z,70.4
2023-04-02T13:51:43.705Z,68.5
2023-04-02T14:06:54.727Z,67.3
2023-04-02T14:22:03.929Z,68.4
2023-04-02T14:37:14.711Z,66.8
2023-04-02T14:52:24.924Z,66.8
2023-04-02T15:07:33.796Z,68.7
2023-04-02T15:22:44.135Z,68.6
2023-04-02T15:37:56.210Z,63.4
2023-04-02T15:53:05.744Z,67.7
2023-04-02T16:08:13.829Z,67.1
2023-04-02T16:23:24.170Z,67.8
2023-04-02T16:38:32.349Z,70.9
2023-04-02T16:54:02.931Z,72
2023-04-02T17:09:12.738Z,72.3
2023-04-02T17:24:22.045Z,72.4
2023-04-02T17:39:31.373Z,72.4
2023-04-02T17:54:43.663Z,72.3
2023-04-02T18:09:55.000Z,72.4
2023-04-02T18:25:04.555Z,72.3
2023-04-02T18:40:15.426Z,72.4
2023-04-02T18:55:25.981Z,72.5
2023-04-02T19:10:35.940Z,72.6
2023-04-02T19:25:44.916Z,72.7
2023-04-02T19:40:54.332Z,72.6
2023-04-02T19:56:04.281Z,72.8
2023-04-02T20:11:14.172Z,73.1
2023-04-02T20:26:23.489Z,73.2
2023-04-02T20:41:32.630Z,73
2023-04-02T20:56:44.033Z,73
2023-04-02T21:11:52.544Z,73
2023-04-02T21:27:01.976Z,73.1
2023-04-02T21:42:10.729Z,73.1
2023-04-02T21:57:20.280Z,73.1
2023-04-02T22:12:29.007Z,73
2023-04-02T22:27:37.874Z,73.2
2023-04-02T22:42:49.358Z,73.4
2023-04-02T22:57:58.784Z,73.3
2023-04-02T23:13:08.092Z,73.4
2023-04-02T23:28:17.206Z,73.5
2023-04-02T23:43:26.743Z,73.5
2023-04-02T23:58:35.844Z,73.6
